Time;durP1;ratioP1;P1;durP2;ratioP2;P2;SDS_P1;SDS_P2;PMS_P1;PMS_P2;Temp;Humidity;BMP_temperature;BMP_pressure;BME280_temperature;BME280_humidity;BME280_pressure;Samples;Min_cycle;Max_cycle;Signal;HPM_P1;HPM_P2
2021/05/24 00:00:00;;;;;;;4.13;2.00;;;;;;;8.82;70.93;100733.28;5021726;28;20226;-66
2021/05/24 00:02:26;;;;;;;3.37;1.60;;;;;;;8.82;70.41;100737.75;5021171;28;20218;-67
2021/05/24 00:04:52;;;;;;;2.67;1.53;;;;;;;8.82;70.16;100724.47;5019521;28;20577;-67
2021/05/24 00:07:18;;;;;;;3.27;1.70;;;;;;;8.83;70.65;100727.03;5015621;28;20917;-67
2021/05/24 00:09:44;;;;;;;2.90;1.60;;;;;;;8.82;70.26;100730.63;5025114;28;20230;-67
2021/05/24 00:12:11;;;;;;;3.53;1.77;;;;;;;8.85;71.14;100729.59;5030161;28;20221;-67
2021/05/24 00:14:39;;;;;;;2.27;1.37;;;;;;;8.86;70.22;100723.34;5016769;28;20211;-67
2021/05/24 00:17:06;;;;;;;4.87;1.70;;;;;;;8.87;70.37;100733.91;5025447;28;20268;-66
2021/05/24 00:19:32;;;;;;;4.80;1.33;;;;;;;8.89;69.74;100734.69;5020847;28;20731;-66
2021/05/24 00:21:59;;;;;;;3.10;1.60;;;;;;;8.92;69.96;100726.53;5027513;28;20202;-67
2021/05/24 00:24:25;;;;;;;2.43;1.80;;;;;;;8.94;69.84;100729.13;5029983;28;20679;-68
2021/05/24 00:26:51;;;;;;;2.17;1.50;;;;;;;8.96;69.63;100724.56;5019740;28;20203;-67
2021/05/24 00:29:20;;;;;;;5.07;1.90;;;;;;;8.97;70.15;100716.50;5030190;28;20248;-67
2021/05/24 00:31:46;;;;;;;1.70;1.27;;;;;;;8.98;70.56;100720.88;5029794;28;20630;-67
2021/05/24 00:34:12;;;;;;;4.40;1.70;;;;;;;9.00;70.42;100718.13;5029863;28;20206;-67
2021/05/24 00:36:38;;;;;;;3.17;1.30;;;;;;;9.00;69.63;100720.78;5030130;28;20206;-67
2021/05/24 00:39:07;;;;;;;2.90;1.70;;;;;;;8.99;69.62;100717.28;5019493;28;20746;-66
2021/05/24 00:41:34;;;;;;;3.83;1.90;;;;;;;8.99;69.38;100719.94;5012259;28;20221;-66
2021/05/24 00:44:01;;;;;;;2.67;1.60;;;;;;;8.99;69.60;100717.28;5017957;28;20208;-67
2021/05/24 00:46:27;;;;;;;2.67;1.50;;;;;;;8.99;70.28;100711.09;5023910;28;20210;-67
2021/05/24 00:48:53;;;;;;;3.17;2.00;;;;;;;8.99;69.51;100709.31;5028429;28;20237;-67
2021/05/24 00:51:19;;;;;;;5.67;1.80;;;;;;;8.99;69.12;100714.63;5022833;28;20669;-67
2021/05/24 00:53:45;;;;;;;2.50;1.40;;;;;;;8.97;69.67;100703.22;5029974;28;20206;-67
2021/05/24 00:56:12;;;;;;;2.03;1.47;;;;;;;8.97;68.74;100687.28;5024183;28;20209;-67
2021/05/24 00:58:38;;;;;;;2.23;1.57;;;;;;;8.98;68.94;100688.13;5018214;28;20696;-67
2021/05/24 01:01:04;;;;;;;2.73;1.63;;;;;;;8.96;69.45;100690.88;5029199;28;20198;-67
2021/05/24 01:03:31;;;;;;;1.57;1.27;;;;;;;8.97;69.79;100684.63;5012538;28;20676;-67
2021/05/24 01:05:57;;;;;;;3.23;1.30;;;;;;;8.99;69.22;100689.84;5025381;28;20260;-67
2021/05/24 01:08:23;;;;;;;2.30;1.40;;;;;;;9.00;69.27;100686.25;5012898;28;20229;-67
2021/05/24 01:10:49;;;;;;;1.93;1.30;;;;;;;9.00;69.00;100680.94;5019691;28;20213;-69
2021/05/24 01:13:16;;;;;;;4.00;1.60;;;;;;;8.99;68.46;100677.44;5025758;28;20217;-65
2021/05/24 01:15:43;;;;;;;1.77;1.20;;;;;;;9.01;68.96;100686.16;5017432;28;20293;-66
2021/05/24 01:18:10;;;;;;;2.53;1.27;;;;;;;9.03;68.76;100683.44;5020467;28;20202;-66
2021/05/24 01:20:37;;;;;;;2.40;1.20;;;;;;;9.03;68.27;100681.63;5016873;28;20210;-67
2021/05/24 01:23:10;;;;;;;1.93;1.20;;;;;;;9.04;68.29;100675.38;5028160;28;20603;-67
2021/05/24 01:25:40;;;;;;;2.93;1.10;;;;;;;9.03;67.79;100671.00;5024678;28;20220;-67
2021/05/24 01:28:08;;;;;;;2.67;1.20;;;;;;;9.04;67.43;100672.72;5029808;28;20226;-67
2021/05/24 01:30:34;;;;;;;3.40;1.23;;;;;;;9.03;67.95;100664.84;5020072;28;20210;-67
2021/05/24 01:33:01;;;;;;;1.70;1.17;;;;;;;9.04;68.07;100666.56;5027059;28;20209;-67
2021/05/24 01:35:27;;;;;;;2.40;1.10;;;;;;;9.03;67.37;100654.22;5020877;28;20229;-68
2021/05/24 01:37:53;;;;;;;2.30;1.13;;;;;;;9.03;67.36;100648.91;5018928;28;20199;-66
2021/05/24 01:40:21;;;;;;;1.20;1.10;;;;;;;9.02;67.14;100648.03;5022967;28;20698;-66
2021/05/24 01:42:51;;;;;;;1.03;0.97;;;;;;;9.02;67.31;100648.03;5015733;28;20293;-67
2021/05/24 01:45:18;;;;;;;1.70;1.20;;;;;;;9.02;67.32;100641.88;5020474;28;20708;-67
2021/05/24 01:47:44;;;;;;;2.23;0.80;;;;;;;9.03;67.33;100638.28;5018827;28;20230;-66
2021/05/24 01:50:11;;;;;;;1.20;1.10;;;;;;;9.04;67.48;100640.84;5030655;28;20221;-67
2021/05/24 01:52:37;;;;;;;2.17;1.20;;;;;;;9.04;67.51;100646.16;5026905;28;20646;-67
2021/05/24 01:55:05;;;;;;;1.27;0.90;;;;;;;9.05;67.27;100645.22;5032908;28;20672;-67
2021/05/24 01:57:32;;;;;;;3.20;1.20;;;;;;;9.05;67.72;100639.91;5031365;28;20198;-66
2021/05/24 01:59:58;;;;;;;2.00;1.13;;;;;;;9.07;67.51;100645.13;5030909;28;20218;-66
2021/05/24 02:02:24;;;;;;;10.60;1.30;;;;;;;9.08;67.63;100645.97;5032341;28;20672;-66
2021/05/24 02:04:50;;;;;;;1.70;0.90;;;;;;;9.11;67.23;100645.81;5018667;28;20214;-67
2021/05/24 02:07:16;;;;;;;2.97;0.93;;;;;;;9.13;67.13;100643.94;5025057;28;20676;-66
2021/05/24 02:09:43;;;;;;;3.37;1.30;;;;;;;9.13;67.29;100634.16;5025340;28;20236;-66
2021/05/24 02:12:09;;;;;;;1.47;1.00;;;;;;;9.16;67.32;100643.72;5028469;28;20206;-67
2021/05/24 02:14:36;;;;;;;1.73;0.90;;;;;;;9.17;67.66;100642.78;5033332;28;20210;-66
2021/05/24 02:17:02;;;;;;;2.53;1.10;;;;;;;9.18;67.47;100645.34;5031939;28;20202;-67
2021/05/24 02:19:28;;;;;;;2.90;1.30;;;;;;;9.18;67.26;100640.03;5055718;22;20236;-66
2021/05/24 02:21:54;;;;;;;1.80;1.20;;;;;;;9.18;67.30;100648.00;5052086;28;20216;-66
2021/05/24 02:24:20;;;;;;;2.93;1.10;;;;;;;9.18;67.75;100650.66;5052972;28;20233;-66
2021/05/24 02:26:46;;;;;;;1.80;1.00;;;;;;;9.18;67.66;100640.03;5052802;28;20198;-67
2021/05/24 02:29:13;;;;;;;1.97;1.00;;;;;;;9.16;67.96;100641.06;5049447;28;20240;-65
2021/05/24 02:31:40;;;;;;;1.57;1.17;;;;;;;9.15;67.59;100642.88;5034163;28;20203;-65
2021/05/24 02:34:07;;;;;;;1.80;1.10;;;;;;;9.14;67.26;100645.63;5030839;28;20216;-66
2021/05/24 02:36:35;;;;;;;1.43;1.00;;;;;;;9.12;67.79;100647.53;5034173;28;20247;-65
2021/05/24 02:39:05;;;;;;;3.30;1.40;;;;;;;9.08;67.41;100641.53;5030949;28;20217;-65
2021/05/24 02:41:31;;;;;;;1.10;1.00;;;;;;;9.06;68.40;100646.06;5038292;28;20222;-65
2021/05/24 02:43:57;;;;;;;2.13;1.10;;;;;;;9.03;68.11;100644.44;5037195;28;20358;-65
2021/05/24 02:46:23;;;;;;;1.23;1.10;;;;;;;9.01;68.38;100648.13;5030551;28;20206;-64
2021/05/24 02:48:50;;;;;;;2.83;1.10;;;;;;;8.97;68.71;100643.91;5035139;28;20226;-65
2021/05/24 02:51:16;;;;;;;2.27;1.23;;;;;;;8.94;68.24;100646.78;5049661;28;20216;-65
2021/05/24 02:53:42;;;;;;;2.50;1.50;;;;;;;8.90;68.83;100638.13;5046357;28;20240;-66
2021/05/24 02:56:08;;;;;;;2.60;1.20;;;;;;;8.86;69.51;100635.72;5026384;28;20206;-64
2021/05/24 02:58:34;;;;;;;2.87;1.23;;;;;;;8.83;68.67;100639.41;5037549;28;20202;-66
2021/05/24 03:01:00;;;;;;;1.97;1.10;;;;;;;8.80;68.89;100636.91;5044694;28;20209;-66
2021/05/24 03:03:29;;;;;;;3.40;1.57;;;;;;;8.77;69.60;100637.09;5046322;28;20201;-65
2021/05/24 03:05:55;;;;;;;1.83;1.03;;;;;;;8.75;69.27;100632.81;5030363;28;20214;-65
2021/05/24 03:08:22;;;;;;;1.10;1.00;;;;;;;8.74;69.99;100644.38;5034835;28;20221;-66
2021/05/24 03:10:48;;;;;;;1.93;1.20;;;;;;;8.73;70.39;100634.69;5033537;28;20204;-65
2021/05/24 03:13:14;;;;;;;1.57;1.17;;;;;;;8.73;70.04;100637.34;5034471;28;20261;-64
2021/05/24 03:15:40;;;;;;;1.83;1.20;;;;;;;8.73;69.77;100640.88;5038378;28;20301;-65
2021/05/24 03:18:06;;;;;;;1.57;1.20;;;;;;;8.72;70.01;100628.53;5038029;28;20235;-65
2021/05/24 03:20:32;;;;;;;1.50;1.10;;;;;;;8.72;70.64;100622.38;5038172;28;20237;-66
2021/05/24 03:22:59;;;;;;;2.43;1.10;;;;;;;8.69;70.92;100618.06;5042389;28;20208;-66
2021/05/24 03:25:25;;;;;;;1.63;1.10;;;;;;;8.66;70.00;100618.25;5030752;28;20209;-66
2021/05/24 03:27:51;;;;;;;1.33;0.97;;;;;;;8.66;70.44;100623.56;5035278;28;20229;-65
2021/05/24 03:30:18;;;;;;;1.87;0.93;;;;;;;8.65;70.25;100621.84;5047403;28;20607;-66
2021/05/24 03:32:45;;;;;;;1.10;1.00;;;;;;;8.63;70.68;100624.56;5043848;28;20210;-66
2021/05/24 03:35:12;;;;;;;2.73;0.97;;;;;;;8.60;70.86;100622.09;5048841;28;20202;-66
2021/05/24 03:37:38;;;;;;;3.03;1.20;;;;;;;8.59;71.23;100612.44;5043228;28;20213;-66
2021/05/24 03:40:07;;;;;;;1.53;1.10;;;;;;;8.58;70.60;100613.38;5031213;28;20226;-64
2021/05/24 03:42:33;;;;;;;1.33;0.90;;;;;;;8.57;71.17;100610.81;5032871;28;20210;-67
2021/05/24 03:45:01;;;;;;;1.90;1.00;;;;;;;8.59;71.68;100612.44;5047560;28;20671;-66
2021/05/24 03:47:27;;;;;;;3.13;1.40;;;;;;;8.59;71.42;100608.94;5038086;28;20592;-67
2021/05/24 03:49:53;;;;;;;1.53;1.10;;;;;;;8.60;71.65;100608.81;5046805;28;20279;-66
2021/05/24 03:52:19;;;;;;;1.80;0.80;;;;;;;8.62;71.95;100604.28;5042117;28;20655;-67
2021/05/24 03:54:45;;;;;;;1.07;0.97;;;;;;;8.63;71.62;100598.03;5040816;28;20205;-66
2021/05/24 03:57:13;;;;;;;1.93;1.00;;;;;;;8.67;72.32;100604.03;5047061;28;20282;-66
2021/05/24 03:59:39;;;;;;;2.53;0.90;;;;;;;8.69;72.29;100596.84;5042812;28;20226;-64
2021/05/24 04:02:05;;;;;;;1.67;1.10;;;;;;;8.75;72.33;100593.00;5044186;28;20201;-64
2021/05/24 04:04:32;;;;;;;2.43;1.10;;;;;;;8.78;71.81;100591.00;5044560;28;20233;-66
2021/05/24 04:07:00;;;;;;;0.87;0.80;;;;;;;8.83;71.90;100591.59;5048402;28;20206;-66
2021/05/24 04:09:26;;;;;;;1.43;0.90;;;;;;;8.87;71.53;100598.44;5037426;28;20257;-65
2021/05/24 04:11:52;;;;;;;2.30;1.00;;;;;;;8.92;71.99;100601.72;5031485;28;20259;-66
2021/05/24 04:14:19;;;;;;;1.20;1.10;;;;;;;8.97;72.15;100607.59;5046569;28;20197;-66
2021/05/24 04:16:45;;;;;;;1.43;1.10;;;;;;;9.01;71.91;100609.13;5027038;28;20676;-67
2021/05/24 04:19:12;;;;;;;1.07;0.97;;;;;;;9.07;72.71;100607.06;5025325;28;20276;-64
2021/05/24 04:21:40;;;;;;;1.33;0.70;;;;;;;9.11;72.02;100603.31;5023305;28;20215;-65
2021/05/24 04:24:08;;;;;;;1.47;1.10;;;;;;;9.19;72.35;100606.34;5025034;28;20198;-65
2021/05/24 04:26:35;;;;;;;1.33;1.00;;;;;;;9.24;71.46;100598.97;5032655;28;20672;-64
2021/05/24 04:29:01;;;;;;;3.33;1.00;;;;;;;9.29;72.28;100592.47;5041942;28;20233;-64
2021/05/24 04:31:28;;;;;;;2.03;1.10;;;;;;;9.35;72.13;100592.06;5031398;28;20202;-62
2021/05/24 04:33:54;;;;;;;2.70;1.03;;;;;;;9.41;72.03;100596.19;5022389;28;20621;-64
2021/05/24 04:36:20;;;;;;;2.03;1.10;;;;;;;9.50;71.65;100606.25;5020217;28;20577;-64
2021/05/24 04:38:46;;;;;;;3.20;1.00;;;;;;;9.56;71.57;100605.91;5019636;28;20222;-63
2021/05/24 04:41:12;;;;;;;1.47;1.00;;;;;;;9.63;71.66;100599.28;5023898;28;20206;-64
2021/05/24 04:43:40;;;;;;;0.93;0.80;;;;;;;9.72;71.81;100604.03;5031686;28;20202;-65
2021/05/24 04:46:07;;;;;;;1.90;1.47;;;;;;;9.81;71.78;100593.78;5037198;28;20280;-65
2021/05/24 04:48:34;;;;;;;2.07;0.83;;;;;;;9.88;71.04;100601.28;5042269;28;20703;-64
2021/05/24 04:51:01;;;;;;;1.17;0.63;;;;;;;9.97;70.92;100599.88;5036628;28;20209;-65
2021/05/24 04:53:27;;;;;;;1.53;0.90;;;;;;;10.03;70.52;100594.19;5035275;28;20202;-64
2021/05/24 04:55:53;;;;;;;1.77;1.20;;;;;;;10.10;70.64;100604.34;5042017;28;20624;-65
2021/05/24 04:58:20;;;;;;;1.93;0.90;;;;;;;10.18;70.59;100597.69;5033730;28;20202;-65
2021/05/24 05:00:46;;;;;;;1.77;0.80;;;;;;;10.25;69.93;100593.72;5038746;28;20241;-65
2021/05/24 05:03:12;;;;;;;0.90;0.70;;;;;;;10.32;70.03;100592.41;5037103;28;20206;-65
2021/05/24 05:05:40;;;;;;;2.07;0.83;;;;;;;10.36;70.14;100585.94;5042924;28;20562;-65
2021/05/24 05:08:06;;;;;;;1.70;0.73;;;;;;;10.43;69.64;100590.75;5039167;28;20317;-66
2021/05/24 05:10:32;;;;;;;2.53;0.90;;;;;;;10.51;69.50;100587.59;5035179;28;20245;-65
2021/05/24 05:12:59;;;;;;;1.40;0.80;;;;;;;10.60;69.65;100588.81;5037555;28;20201;-64
2021/05/24 05:15:25;;;;;;;1.93;1.00;;;;;;;10.65;69.13;100584.91;5036447;28;20202;-64
2021/05/24 05:17:51;;;;;;;1.43;0.80;;;;;;;10.73;68.96;100579.09;5040477;28;20276;-65
2021/05/24 05:20:17;;;;;;;1.40;0.80;;;;;;;10.82;68.90;100580.28;5031147;28;20777;-65
2021/05/24 05:22:44;;;;;;;1.07;0.70;;;;;;;10.91;68.64;100582.38;5017660;28;20213;-65
2021/05/24 05:25:11;;;;;;;1.37;0.80;;;;;;;10.99;68.07;100580.03;5013853;28;20571;-65
2021/05/24 05:27:37;;;;;;;0.93;0.80;;;;;;;11.08;68.21;100574.97;5024306;28;20222;-65
2021/05/24 05:30:04;;;;;;;1.43;1.03;;;;;;;11.20;67.91;100583.09;5019081;28;20268;-64
2021/05/24 05:32:30;;;;;;;2.60;0.87;;;;;;;11.30;67.42;100570.84;5024569;28;20526;-64
2021/05/24 05:34:56;;;;;;;0.93;0.60;;;;;;;11.42;67.07;100575.34;5029308;28;20213;-64
2021/05/24 05:37:22;;;;;;;2.27;0.70;;;;;;;11.56;67.37;100577.94;5029557;28;20711;-64
2021/05/24 05:39:54;;;;;;;2.87;0.90;;;;;;;11.70;66.87;100571.63;5028284;28;20279;-65
2021/05/24 05:42:20;;;;;;;1.37;0.80;;;;;;;11.83;66.50;100569.84;5028575;28;20682;-64
2021/05/24 05:44:46;;;;;;;1.83;0.70;;;;;;;11.94;66.15;100556.63;5029108;28;20297;-65
2021/05/24 05:47:12;;;;;;;1.70;0.90;;;;;;;12.06;65.89;100569.09;5029080;28;20204;-64
2021/05/24 05:49:38;;;;;;;1.10;0.63;;;;;;;12.20;65.55;100560.09;5028914;28;20279;-64
2021/05/24 05:52:05;;;;;;;2.07;0.60;;;;;;;12.34;65.07;100562.66;5026762;28;20245;-64
2021/05/24 05:54:31;;;;;;;1.07;0.80;;;;;;;12.44;64.45;100566.34;5033166;28;20202;-65
2021/05/24 05:56:58;;;;;;;1.83;0.73;;;;;;;12.57;64.25;100562.78;5041459;28;20206;-65
2021/05/24 05:59:24;;;;;;;1.27;0.43;;;;;;;12.70;63.93;100560.94;5021634;28;20229;-64
2021/05/24 06:01:50;;;;;;;1.77;0.60;;;;;;;12.82;63.42;100550.19;5022367;28;20302;-65
2021/05/24 06:04:16;;;;;;;0.77;0.70;;;;;;;12.98;63.10;100551.72;5021103;28;20731;-64
2021/05/24 06:06:42;;;;;;;1.13;0.70;;;;;;;13.11;62.47;100539.13;5019215;28;20247;-64
2021/05/24 06:09:08;;;;;;;1.00;0.80;;;;;;;13.25;62.12;100546.16;5021624;28;20691;-63
2021/05/24 06:11:34;;;;;;;1.37;0.63;;;;;;;13.40;61.68;100545.00;5016524;28;20214;-65
2021/05/24 06:14:01;;;;;;;1.93;0.90;;;;;;;13.53;61.66;100543.91;5022127;28;20209;-65
2021/05/24 06:16:27;;;;;;;1.67;0.87;;;;;;;13.69;60.91;100542.72;5023316;28;20217;-63
2021/05/24 06:18:53;;;;;;;2.10;0.80;;;;;;;13.85;60.70;100541.41;5026304;28;20666;-65
2021/05/24 06:21:19;;;;;;;0.70;0.70;;;;;;;14.04;60.62;100539.94;5019001;28;20201;-64
2021/05/24 06:23:46;;;;;;;1.20;0.80;;;;;;;14.18;59.51;100537.00;5023731;28;20292;-64
2021/05/24 06:26:12;;;;;;;2.10;0.83;;;;;;;14.34;59.33;100540.16;5024480;28;20295;-65
2021/05/24 06:28:38;;;;;;;3.80;0.87;;;;;;;14.51;59.06;100545.03;5023448;28;20222;-64
2021/05/24 06:31:05;;;;;;;0.97;0.60;;;;;;;14.68;58.64;100543.69;5021143;28;20640;-63
2021/05/24 06:33:31;;;;;;;1.93;0.70;;;;;;;14.82;57.72;100542.53;5022990;28;20206;-64
2021/05/24 06:35:57;;;;;;;2.20;0.70;;;;;;;14.97;57.27;100535.91;5024441;28;20202;-65
2021/05/24 06:38:23;;;;;;;1.20;0.73;;;;;;;15.10;56.71;100541.09;5023924;28;20575;-62
2021/05/24 06:40:49;;;;;;;0.87;0.50;;;;;;;15.23;56.37;100531.88;5026712;28;20251;-67
2021/05/24 06:43:15;;;;;;;1.60;0.67;;;;;;;15.41;56.85;100536.66;5025044;28;20257;-66
2021/05/24 06:45:41;;;;;;;1.37;0.53;;;;;;;15.54;55.54;100540.88;5026860;28;20206;-65
2021/05/24 06:48:08;;;;;;;1.70;0.60;;;;;;;15.67;54.98;100532.63;5024338;28;20439;-66
2021/05/24 06:50:34;;;;;;;1.23;0.70;;;;;;;15.76;54.21;100531.84;5025235;28;20222;-63
2021/05/24 06:53:00;;;;;;;1.53;0.73;;;;;;;15.86;53.41;100532.72;5018268;28;20215;-66
2021/05/24 06:55:26;;;;;;;0.97;0.63;;;;;;;15.95;53.09;100521.16;5024217;28;20292;-67
2021/05/24 06:57:52;;;;;;;1.20;0.60;;;;;;;16.04;52.70;100534.78;5020876;28;20784;-67
2021/05/24 07:00:19;;;;;;;1.20;0.67;;;;;;;16.11;52.62;100530.59;5024119;28;20222;-67
2021/05/24 07:02:47;;;;;;;1.90;0.50;;;;;;;16.21;52.71;100526.94;5021895;28;20202;-66
2021/05/24 07:05:15;;;;;;;3.83;0.60;;;;;;;16.36;52.48;100530.09;5022199;28;20261;-64
2021/05/24 07:07:41;;;;;;;2.23;0.60;;;;;;;16.46;51.86;100516.69;5022327;28;20229;-66
2021/05/24 07:10:08;;;;;;;0.87;0.57;;;;;;;16.53;51.49;100531.28;5014478;28;20230;-65
2021/05/24 07:12:35;;;;;;;2.50;0.80;;;;;;;16.62;50.98;100525.94;5018588;28;20206;-65
2021/05/24 07:15:03;;;;;;;1.37;0.50;;;;;;;16.73;51.02;100518.75;5025978;28;20210;-63
2021/05/24 07:17:29;;;;;;;3.60;0.70;;;;;;;16.82;50.49;100523.31;5021835;28;20215;-64
2021/05/24 07:19:55;;;;;;;1.50;0.40;;;;;;;16.89;50.27;100510.97;5018392;28;20240;-65
2021/05/24 07:22:22;;;;;;;1.87;0.57;;;;;;;16.98;49.98;100511.00;5019771;28;20298;-65
2021/05/24 07:24:48;;;;;;;1.53;0.60;;;;;;;17.05;49.53;100510.41;5016528;28;20501;-66
2021/05/24 07:27:14;;;;;;;0.90;0.60;;;;;;;17.11;49.45;100504.47;5023651;28;20265;-64
2021/05/24 07:29:40;;;;;;;1.57;0.57;;;;;;;17.20;49.14;100498.22;5020036;28;20235;-65
2021/05/24 07:32:10;;;;;;;1.30;0.50;;;;;;;17.26;48.47;100501.19;5021291;28;20218;-63
2021/05/24 07:34:36;;;;;;;1.70;0.40;;;;;;;17.31;48.53;100493.53;5018048;28;20670;-64
2021/05/24 07:37:02;;;;;;;0.83;0.50;;;;;;;17.42;48.79;100500.59;5022354;28;20650;-65
2021/05/24 07:39:29;;;;;;;1.23;0.50;;;;;;;17.57;49.13;100491.06;5018713;28;20688;-64
2021/05/24 07:41:59;;;;;;;1.70;0.70;;;;;;;17.72;48.26;100485.25;5020378;28;20200;-65
2021/05/24 07:44:25;;;;;;;1.23;0.40;;;;;;;17.82;47.99;100483.38;5022801;28;20883;-64
2021/05/24 07:46:51;;;;;;;1.70;0.77;;;;;;;17.91;47.41;100477.97;5022250;28;20208;-65
2021/05/24 07:49:18;;;;;;;2.30;0.60;;;;;;;17.97;46.43;100480.03;5022392;28;20756;-65
2021/05/24 07:51:44;;;;;;;2.93;0.70;;;;;;;18.04;46.30;100478.47;5024291;28;20203;-66
2021/05/24 07:54:10;;;;;;;0.97;0.50;;;;;;;18.14;46.38;100464.91;5023756;28;20211;-64
2021/05/24 07:56:37;;;;;;;1.60;0.50;;;;;;;18.27;46.25;100472.66;5022927;28;20292;-66
2021/05/24 07:59:05;;;;;;;1.30;0.50;;;;;;;18.39;46.56;100461.50;5021632;28;20269;-64
2021/05/24 08:01:31;;;;;;;1.50;0.60;;;;;;;18.55;45.72;100460.00;5020127;28;20217;-65
2021/05/24 08:03:57;;;;;;;1.20;0.60;;;;;;;18.61;45.16;100468.34;5021514;28;20602;-65
2021/05/24 08:06:23;;;;;;;1.30;0.70;;;;;;;18.65;45.02;100458.94;5020071;28;20421;-64
2021/05/24 08:08:50;;;;;;;1.30;0.50;;;;;;;18.72;44.82;100461.88;5016639;28;20244;-65
2021/05/24 08:11:16;;;;;;;1.43;0.57;;;;;;;18.83;45.13;100456.22;5016280;28;20261;-65
2021/05/24 08:13:43;;;;;;;2.47;0.60;;;;;;;18.95;44.50;100456.88;5015410;28;20214;-65
2021/05/24 08:16:12;;;;;;;1.93;0.47;;;;;;;19.04;44.26;100462.16;5016683;28;20551;-64
2021/05/24 08:21:06;;;;;;;2.27;0.60;;;;;;;19.28;43.83;100439.06;5037419;22;20599;-78
2021/05/24 08:23:32;;;;;;;0.30;0.30;;;;;;;19.39;43.67;100449.59;5028509;28;20239;-79
2021/05/24 08:25:58;;;;;;;1.37;0.50;;;;;;;19.51;43.24;100439.41;5021404;28;20223;-78
2021/05/24 08:28:24;;;;;;;1.27;0.40;;;;;;;19.60;42.60;100446.56;5029687;28;20228;-80
2021/05/24 08:30:50;;;;;;;1.33;0.50;;;;;;;19.67;42.39;100436.81;5026357;28;20598;-79
2021/05/24 08:33:19;;;;;;;0.60;0.40;;;;;;;19.71;41.72;100440.84;5026977;28;20206;-79
2021/05/24 08:35:45;;;;;;;0.63;0.50;;;;;;;19.79;41.55;100424.69;5028810;28;20205;-79
2021/05/24 08:38:11;;;;;;;0.90;0.50;;;;;;;19.87;41.34;100422.06;5025082;28;20419;-79
2021/05/24 08:40:37;;;;;;;1.10;0.67;;;;;;;19.93;41.09;100428.63;5029894;28;20221;-78
2021/05/24 08:43:03;;;;;;;0.57;0.40;;;;;;;20.05;41.96;100419.25;5029418;28;20212;-78
2021/05/24 08:45:30;;;;;;;1.10;0.50;;;;;;;20.19;41.73;100417.75;5036501;28;20227;-80
2021/05/24 08:47:57;;;;;;;0.80;0.50;;;;;;;20.28;41.04;100416.75;5036604;28;20234;-79
2021/05/24 08:50:24;;;;;;;1.00;0.40;;;;;;;20.31;40.27;100413.72;5036541;28;20224;-79
2021/05/24 08:52:50;;;;;;;1.90;0.43;;;;;;;20.36;40.48;100405.97;5031116;28;20209;-79
2021/05/24 08:55:16;;;;;;;0.87;0.40;;;;;;;20.52;40.53;100397.06;5034667;28;20200;-79
2021/05/24 08:57:43;;;;;;;1.67;0.50;;;;;;;20.68;40.46;100397.06;5036047;28;20593;-79
2021/05/24 09:00:13;;;;;;;2.53;0.67;;;;;;;20.76;39.79;100389.81;5032811;28;20231;-79
2021/05/24 09:02:39;;;;;;;0.90;0.40;;;;;;;20.84;39.69;100383.53;5032673;28;20240;-79
2021/05/24 09:05:09;;;;;;;2.37;0.93;;;;;;;20.89;39.11;100380.34;5028866;28;20203;-79
2021/05/24 09:07:47;;;;;;;1.33;0.30;;;;;;;20.87;37.62;100383.22;5024687;28;20209;-79
2021/05/24 09:10:13;;;;;;;0.77;0.37;;;;;;;20.88;38.01;100373.22;5028060;28;20221;-79
2021/05/24 09:12:39;;;;;;;1.13;0.40;;;;;;;21.00;38.33;100377.28;5024971;28;20221;-79
2021/05/24 09:15:10;;;;;;;0.63;0.30;;;;;;;21.09;37.36;100371.69;5033053;28;20204;-79
2021/05/24 09:17:45;;;;;;;1.40;0.40;;;;;;;21.07;36.10;100381.00;5032215;28;20652;-80
2021/05/24 09:20:26;;;;;;;0.23;0.23;;;;;;;21.06;36.40;100382.00;5031829;28;20321;-79
2021/05/24 09:23:10;;;;;;;0.83;0.40;;;;;;;21.14;36.58;100374.69;5034465;28;20254;-79
2021/05/24 09:25:58;;;;;;;1.20;0.50;;;;;;;21.26;37.21;100380.66;5035734;28;20235;-79
2021/05/24 09:28:29;;;;;;;0.83;0.40;;;;;;;21.38;37.40;100376.56;5035119;28;20218;-79
2021/05/24 09:30:57;;;;;;;0.83;0.40;;;;;;;21.41;35.94;100380.78;5034848;28;20658;-79
2021/05/24 09:33:24;;;;;;;1.03;0.40;;;;;;;21.40;35.77;100370.97;5027669;28;20210;-76
2021/05/24 09:35:52;;;;;;;0.53;0.30;;;;;;;21.39;34.86;100356.56;5025798;28;20215;-79
2021/05/24 09:38:19;;;;;;;0.90;0.30;;;;;;;21.32;35.87;100355.56;5024453;28;20236;-78
2021/05/24 09:40:54;;;;;;;2.57;0.60;;;;;;;21.32;36.24;100354.72;5025874;28;20234;-79
2021/05/24 09:43:28;;;;;;;1.30;0.40;;;;;;;21.35;36.65;100348.97;5023679;28;20209;-78
2021/05/24 09:46:07;;;;;;;1.55;0.40;;;;;;;21.35;36.37;100343.53;5027416;28;20193;-78
2021/05/24 09:48:33;;;;;;;2.13;0.50;;;;;;;21.34;36.73;100342.69;5023126;28;20260;-78
2021/05/24 09:51:03;;;;;;;0.68;0.45;;;;;;;21.35;36.90;100343.53;5026773;28;20264;-79
2021/05/24 09:53:30;;;;;;;1.27;0.40;;;;;;;21.36;36.11;100339.81;5026239;28;20217;-79
2021/05/24 09:56:05;;;;;;;1.83;0.50;;;;;;;21.28;35.81;100332.56;5027741;28;20205;-80
2021/05/24 09:58:31;;;;;;;1.23;0.52;;;;;;;21.22;36.64;100330.56;5025308;28;20208;-79
2021/05/24 10:01:13;;;;;;;1.30;0.40;;;;;;;21.17;36.56;100323.94;5029081;28;20832;-79
2021/05/24 10:03:41;;;;;;;0.52;0.40;;;;;;;21.12;37.56;100313.63;5025534;28;20221;-78
2021/05/24 10:06:08;;;;;;;1.23;0.38;;;;;;;21.12;37.75;100305.50;5026619;28;20206;-78
2021/05/24 10:08:36;;;;;;;0.80;0.43;;;;;;;21.08;37.38;100299.59;5031951;28;20225;-77
2021/05/24 10:11:03;;;;;;;3.05;0.90;;;;;;;20.99;36.91;100292.50;5022352;28;20210;-78
2021/05/24 10:13:29;;;;;;;1.30;0.40;;;;;;;20.86;37.26;100291.34;5026614;28;20218;-78
2021/05/24 10:16:00;;;;;;;1.00;0.60;;;;;;;20.80;37.39;100280.19;5027493;28;20209;-78
2021/05/24 10:18:28;;;;;;;0.83;0.50;;;;;;;20.78;37.48;100276.78;5028956;28;20198;-78
2021/05/24 10:20:54;;;;;;;1.27;0.47;;;;;;;20.76;37.01;100278.00;5032029;28;20800;-79
2021/05/24 10:23:22;;;;;;;0.87;0.40;;;;;;;20.72;36.48;100273.94;5026588;28;20277;-78
2021/05/24 10:25:50;;;;;;;1.80;0.50;;;;;;;20.76;36.33;100280.72;5030392;28;20260;-78
2021/05/24 10:28:16;;;;;;;2.20;0.40;;;;;;;20.89;36.26;100278.31;5029091;28;20749;-78
2021/05/24 10:30:43;;;;;;;2.93;0.40;;;;;;;20.99;35.22;100268.13;5032568;28;20934;-78
2021/05/24 10:33:13;;;;;;;0.90;0.30;;;;;;;21.10;34.42;100272.34;5033887;28;20305;-79
2021/05/24 10:35:41;;;;;;;1.67;0.40;;;;;;;21.19;33.58;100268.56;5032812;28;20244;-78
2021/05/24 10:38:29;;;;;;;0.83;0.40;;;;;;;21.22;33.05;100267.41;5034080;28;20205;-77
2021/05/24 10:41:07;;;;;;;0.67;0.33;;;;;;;21.24;33.21;100254.53;5031166;28;20777;-78
2021/05/24 10:43:44;;;;;;;1.33;0.40;;;;;;;21.31;33.92;100255.53;5026895;28;20259;-78
2021/05/24 10:46:34;;;;;;;1.00;0.50;;;;;;;21.44;34.51;100253.94;5025773;28;20199;-78
2021/05/24 10:49:04;;;;;;;1.27;0.35;;;;;;;21.54;33.87;100237.47;5029110;28;20633;-79
2021/05/24 10:51:50;;;;;;;0.90;0.47;;;;;;;21.56;33.32;100240.00;5028866;28;20210;-79
2021/05/24 10:54:29;;;;;;;1.10;0.50;;;;;;;21.54;33.56;100221.19;5030622;28;20207;-79
2021/05/24 10:57:12;;;;;;;1.57;0.30;;;;;;;21.55;33.31;100225.59;5027400;28;20205;-77
2021/05/24 10:59:56;;;;;;;1.17;0.30;;;;;;;21.60;33.11;100220.50;5032019;28;20252;-78
2021/05/24 11:02:37;;;;;;;1.27;0.40;;;;;;;21.71;32.57;100224.66;5029592;28;20264;-77
2021/05/24 11:05:08;;;;;;;0.40;0.33;;;;;;;21.73;32.58;100207.19;5030317;28;20274;-79
2021/05/24 11:07:36;;;;;;;1.52;0.45;;;;;;;21.80;32.62;100204.63;5028194;28;20745;-78
2021/05/24 11:10:32;;;;;;;1.70;0.40;;;;;;;21.93;33.14;100204.00;5031286;28;20235;-79
2021/05/24 11:13:27;;;;;;;0.45;0.35;;;;;;;22.04;32.46;100193.59;5027594;28;20236;-78
2021/05/24 11:15:55;;;;;;;0.85;0.40;;;;;;;22.08;32.17;100186.78;5027725;28;20305;-78
2021/05/24 11:18:32;;;;;;;0.80;0.35;;;;;;;22.13;32.33;100194.38;5026418;28;20203;-78
2021/05/24 11:21:15;;;;;;;1.73;0.60;;;;;;;22.21;31.72;100183.47;5030791;28;20242;-78
2021/05/24 11:24:01;;;;;;;2.95;0.38;;;;;;;22.27;32.06;100185.44;5031678;28;20205;-79
2021/05/24 11:26:31;;;;;;;1.73;0.60;;;;;;;22.43;33.14;100171.72;5026361;28;20232;-79
2021/05/24 11:29:09;;;;;;;0.60;0.40;;;;;;;22.55;33.75;100169.41;5022709;28;21579;-79
2021/05/24 11:31:47;;;;;;;0.85;0.20;;;;;;;22.59;33.13;100159.00;5025875;28;20222;-79
2021/05/24 11:34:27;;;;;;;0.68;0.35;;;;;;;22.48;31.31;100160.31;5026077;28;20199;-78